createdAt,value
2022-10-23T00:00:18.030Z,99.90
2022-10-23T00:02:45.407Z,99.90
2022-10-23T00:05:13.634Z,99.90
2022-10-23T00:07:40.527Z,99.90
2022-10-23T00:10:07.766Z,99.90
2022-10-23T00:12:34.691Z,99.90
2022-10-23T00:15:01.690Z,99.90
2022-10-23T00:17:28.613Z,99.90
2022-10-23T00:19:55.425Z,99.90
2022-10-23T00:22:22.383Z,99.90
2022-10-23T00:24:49.233Z,99.90
2022-10-23T00:27:16.111Z,99.90
2022-10-23T00:29:44.721Z,99.90
2022-10-23T00:32:11.598Z,99.90
2022-10-23T00:34:38.456Z,99.90
2022-10-23T00:37:05.359Z,99.90
2022-10-23T00:39:32.258Z,99.90
2022-10-23T00:41:59.166Z,99.90
2022-10-23T00:44:29.631Z,99.90
2022-10-23T00:46:56.999Z,99.90
2022-10-23T00:49:25.454Z,99.90
2022-10-23T00:52:01.278Z,99.90
2022-10-23T00:54:31.333Z,99.90
2022-10-23T00:56:59.652Z,99.90
2022-10-23T00:59:26.563Z,99.90
2022-10-23T01:01:53.596Z,99.90
2022-10-23T01:04:20.613Z,99.90
2022-10-23T01:06:56.721Z,99.90
2022-10-23T01:09:31.900Z,99.90
2022-10-23T01:12:24.787Z,99.90
2022-10-23T01:14:58.458Z,99.90
2022-10-23T01:17:57.047Z,99.90
2022-10-23T01:20:27.748Z,99.90
2022-10-23T01:23:03.590Z,99.90
2022-10-23T01:25:56.953Z,99.90
2022-10-23T01:28:37.070Z,99.90
2022-10-23T01:31:05.968Z,99.90
2022-10-23T01:33:54.606Z,99.90
2022-10-23T01:36:28.069Z,99.90
2022-10-23T01:39:09.035Z,99.90
2022-10-23T01:41:46.567Z,99.90
2022-10-23T01:44:38.273Z,99.90
2022-10-23T01:47:06.544Z,99.90
2022-10-23T01:49:37.497Z,99.90
2022-10-23T01:52:05.621Z,99.90
2022-10-23T01:54:34.405Z,99.90
2022-10-23T01:57:01.285Z,99.90
2022-10-23T01:59:35.338Z,99.90
2022-10-23T02:02:03.327Z,99.90
2022-10-23T02:04:35.347Z,99.90
2022-10-23T02:07:02.249Z,99.90
2022-10-23T02:09:29.132Z,99.90
2022-10-23T02:12:02.898Z,99.90
2022-10-23T02:14:50.635Z,99.90
2022-10-23T02:17:24.510Z,99.90
2022-10-23T02:19:58.283Z,99.90
2022-10-23T02:22:29.133Z,99.90
2022-10-23T02:24:55.987Z,99.90
2022-10-23T02:27:31.061Z,99.90
2022-10-23T02:30:06.119Z,99.90
2022-10-23T02:32:33.694Z,99.90
2022-10-23T02:35:00.645Z,99.90
2022-10-23T02:37:27.800Z,99.90
2022-10-23T02:39:54.759Z,99.90
2022-10-23T02:43:07.683Z,99.90
2022-10-23T02:45:46.857Z,99.90
2022-10-23T02:48:35.471Z,99.90
2022-10-23T02:51:11.759Z,99.90
2022-10-23T02:54:06.145Z,99.90
2022-10-23T02:56:43.851Z,99.90
2022-10-23T02:59:24.827Z,99.90
2022-10-23T03:01:55.007Z,99.90
2022-10-23T03:04:23.350Z,99.90
2022-10-23T03:06:50.920Z,99.90
2022-10-23T03:09:17.943Z,99.90
2022-10-23T03:11:44.815Z,99.90
2022-10-23T03:14:13.019Z,99.90
2022-10-23T03:16:39.912Z,99.90
2022-10-23T03:19:09.241Z,99.90
2022-10-23T03:21:36.263Z,99.90
2022-10-23T03:24:07.439Z,99.90
2022-10-23T03:26:39.650Z,99.90
2022-10-23T03:29:06.487Z,99.90
2022-10-23T03:31:40.228Z,99.90
2022-10-23T03:34:11.113Z,99.90
2022-10-23T03:36:40.322Z,99.90
2022-10-23T03:39:08.583Z,99.90
2022-10-23T03:41:35.508Z,99.90
2022-10-23T03:46:29.802Z,99.90
2022-10-23T03:48:58.981Z,99.90
2022-10-23T03:51:26.453Z,99.90
2022-10-23T03:53:53.301Z,99.90
2022-10-23T03:56:21.489Z,99.90
2022-10-23T03:58:48.428Z,99.90
2022-10-23T04:01:15.343Z,99.90
2022-10-23T04:03:42.288Z,99.90
2022-10-23T04:06:09.219Z,99.90
2022-10-23T04:08:36.201Z,99.90
2022-10-23T04:11:08.539Z,99.90
2022-10-23T04:13:43.149Z,99.90
2022-10-23T04:16:10.097Z,99.90
2022-10-23T04:18:37.620Z,99.90
2022-10-23T04:21:04.569Z,99.90
2022-10-23T04:23:33.065Z,99.90
2022-10-23T04:26:00.049Z,99.90
2022-10-23T04:28:27.232Z,99.90
2022-10-23T04:30:55.017Z,99.90
2022-10-23T04:33:22.055Z,99.90
2022-10-23T04:35:51.081Z,99.90
2022-10-23T04:38:17.956Z,99.90
2022-10-23T04:40:44.911Z,99.90
2022-10-23T04:43:12.032Z,99.90
2022-10-23T04:45:40.097Z,99.90
2022-10-23T04:48:07.129Z,99.90
2022-10-23T04:51:03.012Z,99.90
2022-10-23T04:53:51.441Z,99.90
2022-10-23T04:56:44.561Z,99.90
2022-10-23T04:59:15.820Z,99.90
2022-10-23T05:01:42.949Z,99.90
2022-10-23T05:04:09.874Z,99.90
2022-10-23T05:06:55.101Z,99.90
2022-10-23T05:09:36.102Z,99.90
2022-10-23T05:12:20.877Z,99.90
2022-10-23T05:14:47.902Z,99.90
2022-10-23T05:17:26.864Z,99.90
2022-10-23T05:19:55.341Z,99.90
2022-10-23T05:22:23.359Z,99.90
2022-10-23T05:24:52.367Z,99.90
2022-10-23T05:27:52.430Z,99.90
2022-10-23T05:30:24.969Z,99.90
2022-10-23T05:32:51.868Z,99.90
2022-10-23T05:35:24.474Z,99.90
2022-10-23T05:37:51.712Z,99.90
2022-10-23T05:40:21.973Z,99.90
2022-10-23T05:42:52.464Z,99.90
2022-10-23T05:45:27.349Z,99.90
2022-10-23T05:48:22.832Z,99.90
2022-10-23T05:51:26.510Z,99.90
2022-10-23T05:54:13.618Z,99.90
2022-10-23T05:56:49.121Z,99.90
2022-10-23T05:59:33.636Z,99.90
2022-10-23T06:02:20.798Z,99.90
2022-10-23T06:04:56.929Z,99.90
2022-10-23T06:07:40.423Z,99.90
2022-10-23T06:10:08.343Z,99.90
2022-10-23T06:12:39.943Z,99.90
2022-10-23T06:15:07.475Z,99.90
2022-10-23T06:17:55.971Z,99.90
2022-10-23T06:20:26.590Z,99.90
2022-10-23T06:23:05.150Z,99.90
2022-10-23T06:25:54.081Z,99.90
2022-10-23T06:28:26.333Z,99.90
2022-10-23T06:30:53.599Z,99.90
2022-10-23T06:33:20.666Z,99.90
2022-10-23T06:35:48.053Z,99.90
2022-10-23T06:38:15.286Z,99.90
2022-10-23T06:40:55.455Z,99.90
2022-10-23T06:43:30.600Z,99.90
2022-10-23T06:46:16.306Z,99.90
2022-10-23T06:49:21.106Z,99.90
2022-10-23T06:51:50.091Z,99.90
2022-10-23T06:54:21.238Z,99.90
2022-10-23T06:56:51.339Z,99.90
2022-10-23T06:59:22.463Z,99.90
2022-10-23T07:01:51.689Z,99.90
2022-10-23T07:04:18.787Z,99.90
2022-10-23T07:06:45.687Z,99.90
2022-10-23T07:09:12.876Z,99.90
2022-10-23T07:11:52.010Z,99.90
2022-10-23T07:14:21.397Z,99.90
2022-10-23T07:16:48.376Z,99.90
2022-10-23T07:19:15.300Z,99.90
2022-10-23T07:21:53.456Z,99.90
2022-10-23T07:24:40.867Z,99.90
2022-10-23T07:27:20.989Z,99.90
2022-10-23T07:29:54.876Z,99.90
2022-10-23T07:32:23.961Z,99.90
2022-10-23T07:35:09.776Z,99.90
2022-10-23T07:37:39.147Z,99.90
2022-10-23T07:40:06.899Z,99.90
2022-10-23T07:42:40.851Z,99.90
2022-10-23T07:45:08.832Z,99.90
2022-10-23T07:47:38.917Z,99.90
2022-10-23T07:50:06.390Z,99.90
2022-10-23T07:52:36.115Z,99.90
2022-10-23T07:55:10.026Z,99.90
2022-10-23T07:57:40.174Z,99.90
2022-10-23T08:00:20.558Z,99.90
2022-10-23T08:02:56.531Z,99.90
2022-10-23T08:05:23.648Z,99.90
2022-10-23T08:07:56.881Z,99.80
2022-10-23T08:10:24.461Z,99.80
2022-10-23T08:12:51.478Z,99.10
2022-10-23T08:15:21.573Z,98.30
2022-10-23T08:17:56.882Z,97.60
2022-10-23T08:20:40.704Z,97.30
2022-10-23T08:23:08.886Z,95.80
2022-10-23T08:25:36.200Z,96.50
2022-10-23T08:28:05.596Z,95.60
2022-10-23T08:30:39.539Z,95.90
2022-10-23T08:33:06.905Z,95.90
2022-10-23T08:35:37.673Z,94.70
2022-10-23T08:38:05.697Z,93.60
2022-10-23T08:40:36.393Z,93.60
2022-10-23T08:43:24.760Z,94.50
2022-10-23T08:46:09.681Z,94.60
2022-10-23T08:49:00.968Z,95.70
2022-10-23T08:51:50.121Z,95.30
2022-10-23T08:54:19.421Z,95.60
2022-10-23T08:57:01.462Z,94.50
2022-10-23T08:59:40.248Z,93.60
2022-10-23T09:02:10.078Z,93.60
2022-10-23T09:04:37.046Z,94.10
2022-10-23T09:07:16.244Z,93.50
2022-10-23T09:10:03.771Z,92.00
2022-10-23T09:12:31.035Z,94.20
2022-10-23T09:15:21.337Z,95.10
2022-10-23T09:17:49.022Z,93.30
2022-10-23T09:20:26.511Z,94.40
2022-10-23T09:22:59.041Z,93.80
2022-10-23T09:25:30.727Z,90.20
2022-10-23T09:28:01.459Z,91.10
2022-10-23T09:30:37.200Z,88.10
2022-10-23T09:33:34.764Z,88.90
2022-10-23T09:36:24.541Z,88.40
2022-10-23T09:38:53.135Z,89.10
2022-10-23T09:41:31.139Z,87.60
2022-10-23T09:44:16.083Z,87.30
2022-10-23T09:46:45.268Z,89.00
2022-10-23T09:49:22.321Z,87.30
2022-10-23T09:52:12.108Z,85.30
2022-10-23T09:54:44.569Z,85.60
2022-10-23T09:57:38.398Z,87.20
2022-10-23T10:00:05.415Z,90.50
2022-10-23T10:02:38.645Z,91.10
2022-10-23T10:05:37.369Z,91.40
2022-10-23T10:08:22.877Z,91.20
2022-10-23T10:11:00.389Z,90.50
2022-10-23T10:13:33.307Z,90.30
2022-10-23T10:16:46.256Z,90.00
2022-10-23T10:19:25.534Z,90.20
2022-10-23T10:22:13.871Z,90.10
2022-10-23T10:25:01.788Z,90.70
2022-10-23T10:27:53.095Z,86.20
2022-10-23T10:30:23.865Z,88.50
2022-10-23T10:32:54.881Z,81.40
2022-10-23T10:35:45.596Z,83.30
2022-10-23T10:38:33.982Z,83.00
2022-10-23T10:41:22.559Z,75.10
2022-10-23T10:43:52.303Z,70.80
2022-10-23T10:46:44.452Z,71.70
2022-10-23T10:49:18.874Z,74.00
2022-10-23T10:52:34.384Z,75.40
2022-10-23T10:55:12.678Z,77.80
2022-10-23T10:57:59.195Z,79.40
2022-10-23T11:00:28.584Z,78.30
2022-10-23T11:03:00.380Z,74.70
2022-10-23T11:05:43.314Z,74.10
2022-10-23T11:08:31.945Z,74.70
2022-10-23T11:11:05.874Z,71.60
2022-10-23T11:13:43.273Z,69.80
2022-10-23T11:16:20.780Z,70.70
2022-10-23T11:19:14.250Z,72.40
2022-10-23T11:21:44.486Z,71.40
2022-10-23T11:24:36.090Z,72.40
2022-10-23T11:27:34.063Z,73.90
2022-10-23T11:30:21.889Z,73.70
2022-10-23T11:33:07.603Z,76.90
2022-10-23T11:35:55.066Z,76.20
2022-10-23T11:38:38.416Z,75.80
2022-10-23T11:41:07.583Z,74.80
2022-10-23T11:43:46.760Z,74.10
2022-10-23T11:46:21.917Z,72.80
2022-10-23T11:48:49.361Z,73.60
2022-10-23T11:51:30.842Z,71.70
2022-10-23T11:54:16.257Z,72.30
2022-10-23T11:57:10.355Z,71.60
2022-10-23T11:59:49.799Z,68.50
2022-10-23T12:02:38.870Z,68.50
2022-10-23T12:05:27.575Z,64.50
2022-10-23T12:07:56.108Z,64.70
2022-10-23T12:10:45.982Z,67.10
2022-10-23T12:13:48.382Z,65.50
2022-10-23T12:16:15.368Z,67.50
2022-10-23T12:18:50.327Z,70.50
2022-10-23T12:21:19.605Z,69.30
2022-10-23T12:23:55.452Z,69.70
2022-10-23T12:26:37.481Z,70.50
2022-10-23T12:29:08.795Z,73.60
2022-10-23T12:31:48.129Z,74.90
2022-10-23T12:34:52.223Z,75.90
2022-10-23T12:37:38.322Z,75.30
2022-10-23T12:40:09.296Z,76.30
2022-10-23T12:42:36.249Z,74.70
2022-10-23T12:45:19.324Z,73.40
2022-10-23T12:47:46.450Z,72.00
2022-10-23T12:50:30.726Z,72.80
2022-10-23T12:53:00.975Z,71.70
2022-10-23T12:55:45.610Z,71.60
2022-10-23T12:58:22.983Z,71.00
2022-10-23T13:00:59.523Z,70.80
2022-10-23T13:03:26.916Z,69.50
2022-10-23T13:05:54.939Z,70.30
2022-10-23T13:08:22.478Z,68.70
2022-10-23T13:11:16.763Z,68.90
2022-10-23T13:13:43.769Z,69.00
2022-10-23T13:16:18.050Z,69.20
2022-10-23T13:18:45.050Z,69.30
2022-10-23T13:21:24.788Z,70.10
2022-10-23T13:23:52.004Z,69.90
2022-10-23T13:26:35.040Z,69.80
2022-10-23T13:29:07.452Z,69.40
2022-10-23T13:31:35.770Z,68.90
2022-10-23T13:34:02.710Z,66.00
2022-10-23T13:36:31.132Z,66.30
2022-10-23T13:39:09.373Z,66.80
2022-10-23T13:41:43.682Z,68.30
2022-10-23T13:44:15.129Z,68.20
2022-10-23T13:46:42.320Z,66.30
2022-10-23T13:49:09.284Z,65.30
2022-10-23T13:51:42.797Z,65.00
2022-10-23T13:54:19.612Z,62.80
2022-10-23T13:56:46.669Z,63.90
2022-10-23T13:59:13.966Z,65.00
2022-10-23T14:01:41.157Z,64.80
2022-10-23T14:04:08.318Z,65.60
2022-10-23T14:06:37.492Z,63.80
2022-10-23T14:09:08.391Z,64.10
2022-10-23T14:11:35.411Z,65.40
2022-10-23T14:14:02.382Z,63.90
2022-10-23T14:16:29.503Z,64.40
2022-10-23T14:18:56.620Z,65.20
2022-10-23T14:21:24.063Z,65.70
2022-10-23T14:23:52.181Z,65.60
2022-10-23T14:26:24.970Z,65.50
2022-10-23T14:28:55.475Z,66.20
2022-10-23T14:31:22.651Z,65.70
2022-10-23T14:33:56.968Z,66.30
2022-10-23T14:36:24.023Z,65.60
2022-10-23T14:38:55.756Z,66.50
2022-10-23T14:41:22.839Z,66.10
2022-10-23T14:43:49.813Z,65.80
2022-10-23T14:46:18.543Z,66.20
2022-10-23T14:48:47.137Z,66.20
2022-10-23T14:51:26.399Z,67.20
2022-10-23T14:54:01.844Z,66.30
2022-10-23T14:56:29.230Z,69.20
2022-10-23T14:59:02.660Z,71.60
2022-10-23T15:01:31.051Z,71.80
2022-10-23T15:03:58.055Z,70.80
2022-10-23T15:06:25.132Z,71.40
2022-10-23T15:08:53.212Z,69.60
2022-10-23T15:11:20.223Z,70.00
2022-10-23T15:13:47.215Z,71.90
2022-10-23T15:16:14.195Z,70.80
2022-10-23T15:18:41.117Z,70.40
2022-10-23T15:21:08.750Z,69.60
2022-10-23T15:23:36.928Z,69.80
2022-10-23T15:26:07.393Z,69.30
2022-10-23T15:28:34.269Z,69.30
2022-10-23T15:31:01.175Z,70.90
2022-10-23T15:33:28.244Z,69.20
2022-10-23T15:35:55.470Z,71.80
2022-10-23T15:38:22.585Z,73.10
2022-10-23T15:40:49.552Z,72.80
2022-10-23T15:43:16.744Z,73.50
2022-10-23T15:45:43.667Z,74.30
2022-10-23T15:48:10.628Z,74.60
2022-10-23T15:50:37.684Z,75.40
2022-10-23T15:53:04.707Z,74.60
2022-10-23T15:55:31.703Z,73.90
2022-10-23T15:58:01.992Z,74.30
2022-10-23T16:00:28.973Z,74.30
2022-10-23T16:02:55.901Z,72.60
2022-10-23T16:05:22.824Z,71.60
2022-10-23T16:07:49.749Z,72.80
2022-10-23T16:10:16.696Z,74.80
2022-10-23T16:12:43.759Z,73.90
2022-10-23T16:15:10.937Z,72.70
2022-10-23T16:17:37.832Z,73.20
2022-10-23T16:20:05.046Z,74.40
2022-10-23T16:22:31.952Z,76.20
2022-10-23T16:24:58.892Z,77.20
2022-10-23T16:27:25.876Z,81.80
2022-10-23T16:29:52.812Z,85.50
2022-10-23T16:32:19.964Z,88.00
2022-10-23T16:34:46.920Z,89.30
2022-10-23T16:37:13.857Z,91.70
2022-10-23T16:39:54.170Z,93.00
2022-10-23T16:42:41.704Z,94.50
2022-10-23T16:45:12.834Z,96.40
2022-10-23T16:47:39.698Z,98.80
2022-10-23T16:50:06.841Z,99.00
2022-10-23T16:52:34.592Z,99.90
2022-10-23T16:55:01.545Z,99.90
2022-10-23T16:57:28.545Z,99.90
2022-10-23T16:59:55.433Z,97.60
2022-10-23T17:02:22.393Z,99.90
2022-10-23T17:04:49.418Z,99.60
2022-10-23T17:07:16.390Z,98.80
2022-10-23T17:09:49.540Z,96.20
2022-10-23T17:12:16.818Z,94.80
2022-10-23T17:14:43.752Z,95.30
2022-10-23T17:17:10.950Z,92.80
2022-10-23T17:19:45.668Z,91.90
2022-10-23T17:22:13.532Z,92.80
2022-10-23T17:24:40.774Z,92.70
2022-10-23T17:27:07.751Z,92.40
2022-10-23T17:29:34.862Z,86.40
2022-10-23T17:32:01.806Z,85.40
2022-10-23T17:34:28.723Z,82.90
2022-10-23T17:36:55.809Z,80.40
2022-10-23T17:39:25.120Z,80.30
2022-10-23T17:41:52.178Z,80.60
2022-10-23T17:44:19.180Z,81.60
2022-10-23T17:46:46.113Z,83.10
2022-10-23T17:49:13.158Z,85.60
2022-10-23T17:51:40.106Z,86.20
2022-10-23T17:54:08.503Z,83.90
2022-10-23T17:56:36.576Z,86.30
2022-10-23T17:59:06.326Z,87.10
2022-10-23T18:01:33.392Z,78.90
2022-10-23T18:04:03.434Z,75.60
2022-10-23T18:06:44.384Z,68.30
2022-10-23T18:09:11.407Z,61.40
2022-10-23T18:11:43.850Z,58.20
2022-10-23T18:14:15.122Z,55.80
2022-10-23T18:16:42.268Z,53.60
2022-10-23T18:19:09.313Z,52.90
2022-10-23T18:21:37.899Z,52.80
2022-10-23T18:24:05.176Z,53.80
2022-10-23T18:26:35.092Z,54.20
2022-10-23T18:29:04.399Z,54.10
2022-10-23T18:31:31.330Z,52.20
2022-10-23T18:33:59.731Z,52.90
2022-10-23T18:36:28.091Z,53.50
2022-10-23T18:41:23.692Z,53.80
2022-10-23T18:43:53.866Z,53.30
2022-10-23T18:46:20.927Z,52.70
2022-10-23T18:48:48.014Z,52.50
2022-10-23T18:51:34.716Z,52.70
2022-10-23T18:54:03.387Z,51.40
2022-10-23T18:56:30.306Z,51.40
2022-10-23T18:58:58.697Z,52.20
2022-10-23T19:01:27.188Z,52.60
2022-10-23T19:06:26.558Z,53.80
2022-10-23T19:08:53.661Z,53.50
2022-10-23T19:11:21.500Z,53.90
2022-10-23T19:13:48.362Z,56.00
2022-10-23T19:16:18.714Z,54.80
2022-10-23T19:18:47.469Z,54.70
2022-10-23T19:21:14.475Z,53.30
2022-10-23T19:23:41.631Z,53.20
2022-10-23T19:26:09.562Z,54.20
2022-10-23T19:28:37.851Z,53.40
2022-10-23T19:31:05.419Z,54.30
2022-10-23T19:33:32.658Z,56.20
2022-10-23T19:40:12.815Z,55.80
2022-10-23T19:42:40.296Z,55.10
2022-10-23T19:45:08.856Z,56.70
2022-10-23T19:47:35.923Z,55.90
2022-10-23T19:50:03.224Z,55.40
2022-10-23T19:52:30.197Z,54.50
2022-10-23T19:54:57.006Z,55.20
2022-10-23T19:57:23.849Z,57.60
2022-10-23T19:59:51.147Z,58.50
2022-10-23T20:02:19.047Z,57.70
2022-10-23T20:04:46.189Z,58.60
2022-10-23T20:07:13.393Z,58.50
2022-10-23T20:09:40.301Z,58.00
2022-10-23T20:12:07.276Z,58.20
2022-10-23T20:14:34.450Z,59.00
2022-10-23T20:17:01.671Z,58.80
2022-10-23T20:19:28.797Z,58.20
2022-10-23T20:21:55.669Z,59.00
2022-10-23T20:24:22.741Z,61.00
2022-10-23T20:26:53.885Z,59.70
2022-10-23T20:29:20.832Z,58.60
2022-10-23T20:31:47.873Z,59.40
2022-10-23T20:34:14.855Z,60.00
2022-10-23T20:36:46.757Z,59.20
2022-10-23T20:39:17.043Z,59.30
2022-10-23T20:41:45.096Z,59.20
2022-10-23T20:44:13.711Z,59.30
2022-10-23T20:46:40.713Z,59.20
2022-10-23T20:49:07.690Z,62.50
2022-10-23T20:51:36.081Z,67.20
2022-10-23T20:54:03.559Z,63.50
2022-10-23T20:56:32.404Z,63.80
2022-10-23T20:59:00.596Z,64.40
2022-10-23T21:01:27.895Z,65.40
2022-10-23T21:03:58.506Z,67.50
2022-10-23T21:06:26.696Z,67.30
2022-10-23T21:08:57.340Z,69.70
2022-10-23T21:11:24.371Z,73.30
2022-10-23T21:13:51.751Z,75.00
2022-10-23T21:16:23.655Z,76.60
2022-10-23T21:18:53.298Z,77.30
2022-10-23T21:21:20.527Z,79.10
2022-10-23T21:23:48.178Z,81.00
2022-10-23T21:26:15.532Z,83.10
2022-10-23T21:28:55.637Z,84.20
2022-10-23T21:31:32.401Z,85.80
2022-10-23T21:33:59.335Z,85.60
2022-10-23T21:36:27.423Z,86.40
2022-10-23T21:38:56.865Z,88.70
2022-10-23T21:41:25.517Z,90.50
2022-10-23T21:43:54.492Z,90.80
2022-10-23T21:46:21.482Z,90.80
2022-10-23T21:48:48.386Z,92.00
2022-10-23T21:51:24.320Z,92.30
2022-10-23T21:53:51.856Z,92.40
2022-10-23T21:56:31.979Z,92.80
2022-10-23T21:58:59.784Z,94.20
2022-10-23T22:01:27.263Z,90.90
2022-10-23T22:03:54.497Z,91.30
2022-10-23T22:06:30.327Z,91.50
2022-10-23T22:08:57.982Z,92.00
2022-10-23T22:11:25.094Z,91.20
2022-10-23T22:13:51.995Z,86.60
2022-10-23T22:16:19.472Z,86.80
2022-10-23T22:18:46.628Z,81.40
2022-10-23T22:21:15.792Z,81.00
2022-10-23T22:23:43.003Z,81.70
2022-10-23T22:26:22.880Z,84.30
2022-10-23T22:28:51.326Z,86.70
2022-10-23T22:31:20.017Z,82.50
2022-10-23T22:33:47.147Z,81.20
2022-10-23T22:36:14.085Z,82.00
2022-10-23T22:38:40.960Z,84.50
2022-10-23T22:41:08.108Z,85.60
2022-10-23T22:43:35.015Z,87.10
2022-10-23T22:46:06.304Z,88.70
2022-10-23T22:48:33.723Z,84.30
2022-10-23T22:51:00.616Z,85.10
2022-10-23T22:53:27.605Z,88.00
2022-10-23T22:55:54.927Z,90.50
2022-10-23T22:58:22.330Z,92.40
2022-10-23T23:00:49.317Z,91.70
2022-10-23T23:03:16.508Z,92.80
2022-10-23T23:05:47.340Z,93.20
2022-10-23T23:08:14.486Z,94.50
2022-10-23T23:10:41.482Z,95.30
2022-10-23T23:13:08.391Z,97.50
2022-10-23T23:15:39.977Z,96.00
2022-10-23T23:18:06.991Z,98.00
2022-10-23T23:20:34.318Z,99.90
2022-10-23T23:23:01.205Z,99.90
2022-10-23T23:25:28.095Z,99.90
2022-10-23T23:27:55.032Z,99.90
2022-10-23T23:30:21.923Z,99.90
2022-10-23T23:32:49.010Z,99.90
2022-10-23T23:35:15.933Z,99.90
2022-10-23T23:37:42.791Z,99.90
2022-10-23T23:40:10.193Z,99.90
2022-10-23T23:42:37.059Z,99.90
2022-10-23T23:45:14.282Z,99.90
2022-10-23T23:47:41.895Z,99.90
2022-10-23T23:50:09.845Z,99.90
2022-10-23T23:52:36.710Z,99.90
2022-10-23T23:55:03.729Z,99.90
2022-10-23T23:57:30.602Z,99.90
2022-10-23T23:59:57.506Z,99.90
